Ancramdale, New York
Current Conditions -  °F | °C
As of 5:53 PM on Tuesday 21 Oct 2014 (Local Time) from KPOU Reporting Station
Overcast Overcast  
Wind Chill: 12°   Ceiling: 4300
Heat Index: 12°   Visibility: 10mi
Dew Point: 11°   Wind: 0mph
Humidity: 90%   Direction: NA
Pressure: 29.88"   Gusts: NA
Location:  42.02°N, 73.59°W
Report Text: KPOU 212153Z 00000KT 10SM BKN043 OVC060 12/11 A2988 RMK AO2 SLP116 T01220106
Loading
Personal Weather Stations






























Interactive Weather Map
Tropical Storm Tracking
New forecast layout! Learn more

10-Day Weather Forecast

Advertisements
Track Severe Weather on mobile